Time;durP1;ratioP1;P1;durP2;ratioP2;P2;SDS_P1;SDS_P2;PMS_P1;PMS_P2;Temp;Humidity;BMP_temperature;BMP_pressure;BME280_temperature;BME280_humidity;BME280_pressure;Samples;Min_cycle;Max_cycle;Signal;HPM_P1;HPM_P2
2021/01/29 00:02:12;;;;;;;12.57;7.88;;;;;;;0.94;84.94;99106.75;4999687;28;20135;-75
2021/01/29 00:04:44;;;;;;;14.15;8.43;;;;;;;0.96;85.77;99099.34;5009342;28;20045;-74
2021/01/29 00:07:11;;;;;;;15.88;8.55;;;;;;;1.15;84.59;99090.78;5011045;28;20049;-74
2021/01/29 00:09:38;;;;;;;14.52;8.63;;;;;;;1.15;84.27;99085.41;5010500;28;20084;-75
2021/01/29 00:12:05;;;;;;;14.68;8.57;;;;;;;1.15;83.66;99077.34;4983945;28;20049;-74
2021/01/29 00:14:31;;;;;;;13.77;8.27;;;;;;;1.04;84.33;99080.47;5005137;28;20137;-75
2021/01/29 00:16:57;;;;;;;14.32;8.45;;;;;;;1.11;84.13;99075.22;5008851;28;20046;-73
2021/01/29 00:19:24;;;;;;;13.60;8.43;;;;;;;1.01;84.40;99086.25;5026488;28;20063;-74
2021/01/29 00:21:50;;;;;;;15.23;8.63;;;;;;;1.04;84.67;99088.53;5000657;28;20045;-74
2021/01/29 00:24:17;;;;;;;14.07;8.18;;;;;;;0.89;84.44;99095.72;4993282;28;20482;-74
2021/01/29 00:26:43;;;;;;;15.05;8.27;;;;;;;0.89;84.60;99087.69;5006566;28;20158;-74
2021/01/29 00:29:10;;;;;;;17.08;9.43;;;;;;;1.02;84.38;99081.72;5009964;28;20049;-73
2021/01/29 00:31:37;;;;;;;141.15;103.93;;;;;;;0.85;84.83;99087.22;4977733;28;20671;-74
2021/01/29 00:34:05;;;;;;;466.63;323.85;;;;;;;0.79;87.08;99087.09;5020540;28;20053;-74
2021/01/29 00:36:31;;;;;;;348.02;239.60;;;;;;;0.88;87.30;99094.06;4975399;28;20058;-74
2021/01/29 00:38:57;;;;;;;239.05;150.73;;;;;;;0.90;87.30;99089.34;4997646;28;20048;-74
2021/01/29 00:41:24;;;;;;;280.08;166.55;;;;;;;1.16;85.18;99083.56;5051541;28;20050;-74
2021/01/29 00:43:51;;;;;;;256.40;148.00;;;;;;;1.31;83.98;99071.81;4984762;28;20128;-74
2021/01/29 00:46:18;;;;;;;457.83;297.15;;;;;;;1.24;83.40;99070.91;4970175;28;20056;-75
2021/01/29 00:48:47;;;;;;;349.00;210.02;;;;;;;1.04;83.63;99068.94;4989178;28;20041;-74
2021/01/29 00:51:14;;;;;;;16.02;10.55;;;;;;;0.88;82.27;99070.75;5000773;28;20050;-74
2021/01/29 00:53:41;;;;;;;126.00;69.72;;;;;;;0.69;83.13;99075.81;5005237;28;20137;-74
2021/01/29 00:56:16;;;;;;;92.32;49.20;;;;;;;0.75;82.88;99073.22;4992734;28;20119;-74
2021/01/29 00:58:58;;;;;;;12.32;8.10;;;;;;;0.49;83.71;99070.94;4989848;28;20048;-74
2021/01/29 01:01:44;;;;;;;83.28;48.25;;;;;;;0.38;84.81;99078.56;5019278;28;20534;-75
2021/01/29 01:04:12;;;;;;;619.78;397.88;;;;;;;0.52;84.34;99067.91;4980978;28;20060;-74
2021/01/29 01:06:39;;;;;;;229.55;130.55;;;;;;;0.46;84.44;99071.28;5010249;28;20053;-74
2021/01/29 01:09:24;;;;;;;370.25;206.30;;;;;;;0.60;84.14;99070.53;5015658;28;20411;-74
2021/01/29 01:11:50;;;;;;;688.78;456.48;;;;;;;0.69;85.67;99052.53;5012861;28;20045;-74
2021/01/29 01:14:47;;;;;;;18.60;10.27;;;;;;;0.79;83.71;99041.53;5000852;28;20049;-74
2021/01/29 01:17:41;;;;;;;134.15;62.83;;;;;;;0.72;83.04;99051.31;5006549;28;20541;-74
2021/01/29 01:20:28;;;;;;;17.08;10.32;;;;;;;0.90;83.48;99052.66;4998957;28;20052;-74
2021/01/29 01:22:56;;;;;;;15.38;8.45;;;;;;;0.96;82.75;99048.41;5013315;28;20463;-74
2021/01/29 01:25:37;;;;;;;15.32;7.90;;;;;;;0.77;82.94;99038.19;4995975;28;20102;-74
2021/01/29 01:28:13;;;;;;;15.75;8.63;;;;;;;0.80;83.20;99035.16;4974404;28;20414;-74
2021/01/29 01:30:54;;;;;;;15.88;8.48;;;;;;;0.77;81.75;99030.16;4998633;28;20057;-74
2021/01/29 01:33:21;;;;;;;15.20;8.82;;;;;;;0.61;83.26;99037.34;4990842;28;20045;-74
2021/01/29 01:36:17;;;;;;;13.95;8.23;;;;;;;0.64;83.71;99036.16;4944712;28;20047;-74
2021/01/29 01:38:54;;;;;;;15.88;9.40;;;;;;;0.33;84.02;99042.44;5012475;28;20041;-74
2021/01/29 01:41:20;;;;;;;16.70;9.25;;;;;;;0.45;82.80;99036.63;4994976;28;20041;-74
2021/01/29 01:43:53;;;;;;;15.13;9.15;;;;;;;0.45;83.29;99029.44;4996284;28;20116;-74
2021/01/29 01:46:38;;;;;;;15.32;8.27;;;;;;;0.44;82.35;99011.69;4998390;28;20528;-74
2021/01/29 01:49:37;;;;;;;18.98;10.05;;;;;;;0.43;82.50;99006.50;5012446;28;20087;-74
2021/01/29 01:52:17;;;;;;;15.48;8.50;;;;;;;0.51;82.56;99001.91;4997004;28;20053;-74
2021/01/29 01:55:19;;;;;;;15.52;9.35;;;;;;;0.45;83.28;98991.91;5041206;28;20042;-74
2021/01/29 01:57:56;;;;;;;17.83;10.40;;;;;;;0.41;83.51;98987.09;5009190;28;20130;-74
2021/01/29 02:00:32;;;;;;;14.95;8.65;;;;;;;0.40;82.69;98980.91;4982677;28;20594;-74
2021/01/29 02:03:32;;;;;;;19.02;9.45;;;;;;;0.20;82.44;98975.22;4997090;28;20073;-74
2021/01/29 02:06:20;;;;;;;18.15;8.73;;;;;;;0.21;83.22;98976.06;4998711;28;20064;-74
2021/01/29 02:09:02;;;;;;;14.70;9.07;;;;;;;0.29;83.00;98970.66;4997384;28;20044;-74
2021/01/29 02:11:58;;;;;;;15.98;8.57;;;;;;;0.26;83.53;98977.19;4999896;28;20041;-74
2021/01/29 02:14:45;;;;;;;15.55;9.02;;;;;;;0.30;82.92;98975.81;5029099;28;20514;-74
2021/01/29 02:17:46;;;;;;;14.35;9.15;;;;;;;0.20;82.79;98969.88;5010960;28;20075;-75
2021/01/29 02:21:15;;;;;;;17.42;9.73;;;;;;;0.28;83.32;98967.13;4999248;28;20041;-74
2021/01/29 02:24:23;;;;;;;;;;;;;;;0.44;83.40;98963.44;5026643;28;20087;-74
2021/01/29 02:27:21;;;;;;;;;;;;;;;0.41;83.48;98961.13;4973454;28;19922;-74
2021/01/29 02:30:09;;;;;;;;;;;;;;;0.48;82.80;98954.03;4980303;28;19925;-74
2021/01/29 02:32:40;;;;;;;;;;;;;;;0.29;84.26;98951.88;5008841;28;19928;-74
2021/01/29 02:35:15;;;;;;;;;;;;;;;0.31;83.56;98955.22;5012078;28;19921;-74
2021/01/29 02:37:44;;;;;;;;;;;;;;;0.37;83.24;98954.47;5017327;28;19947;-73
2021/01/29 02:40:32;;;;;;;;;;;;;;;0.35;83.00;98951.13;5020259;28;19925;-74
2021/01/29 02:43:01;;;;;;;;;;;;;;;0.21;83.93;98947.44;4995993;28;20126;-74
2021/01/29 02:45:42;;;;;;;;;;;;;;;0.36;83.38;98943.94;5011955;28;19956;-74
2021/01/29 02:48:34;;;;;;;;;;;;;;;0.48;83.15;98937.97;5015023;28;19921;-74
2021/01/29 02:51:38;;;;;;;;;;;;;;;0.62;82.76;98934.47;5014781;28;19921;-74
2021/01/29 02:54:24;;;;;;;;;;;;;;;0.38;82.95;98931.19;4973519;28;19921;-74
2021/01/29 02:57:31;;;;;;;;;;;;;;;0.61;82.58;98938.16;4989739;28;19929;-74
2021/01/29 03:00:43;;;;;;;;;;;;;;;0.63;82.79;98936.13;5016111;28;19966;-73
2021/01/29 03:03:19;;;;;;;;;;;;;;;0.77;83.10;98939.00;4986293;28;19970;-73
2021/01/29 03:06:14;;;;;;;;;;;;;;;0.71;82.83;98940.56;4994015;28;19929;-73
2021/01/29 03:08:42;;;;;;;;;;;;;;;0.93;81.70;98934.28;4993060;28;19921;-73
2021/01/29 03:11:29;;;;;;;;;;;;;;;0.79;81.84;98927.06;5006052;28;20009;-73
2021/01/29 03:14:16;;;;;;;;;;;;;;;0.72;83.37;98925.31;4987070;28;19966;-73
2021/01/29 03:17:21;;;;;;;;;;;;;;;0.76;82.51;98915.88;4983557;28;19921;-73
2021/01/29 03:20:10;;;;;;;;;;;;;;;0.61;83.60;98914.03;5012544;28;20497;-74
2021/01/29 03:22:56;;;;;;;;;;;;;;;0.63;83.48;98909.34;4996647;28;19959;-73
2021/01/29 03:25:42;;;;;;;;;;;;;;;0.71;83.74;98904.88;5005745;28;19925;-73
2021/01/29 03:28:36;;;;;;;;;;;;;;;0.58;84.15;98909.03;4959898;28;19921;-74
2021/01/29 03:31:21;;;;;;;;;;;;;;;0.51;83.49;98902.75;4999905;28;19921;-74
2021/01/29 03:34:09;;;;;;;;;;;;;;;0.34;85.11;98895.91;5000212;28;20294;-73
2021/01/29 03:36:59;;;;;;;;;;;;;;;0.32;85.57;98903.31;4977267;28;19921;-73
2021/01/29 03:39:44;;;;;;;;;;;;;;;0.44;84.05;98896.47;5014095;28;19925;-73
2021/01/29 03:42:31;;;;;;;;;;;;;;;0.30;84.53;98890.09;4999985;28;20306;-73
2021/01/29 03:45:17;;;;;;;;;;;;;;;0.25;85.66;98883.63;5013828;28;19920;-73
2021/01/29 03:48:07;;;;;;;;;;;;;;;0.12;85.76;98880.72;4999972;28;20064;-74
2021/01/29 03:50:53;;;;;;;;;;;;;;;0.24;85.30;98873.91;4997599;28;19924;-74
2021/01/29 03:53:57;;;;;;;;;;;;;;;0.17;85.64;98872.97;4994014;28;19921;-73
2021/01/29 03:56:51;;;;;;;;;;;;;;;0.10;86.38;98855.97;5025186;28;19925;-73
2021/01/29 03:59:39;;;;;;;;;;;;;;;0.04;85.61;98845.97;4958186;28;19921;-73
2021/01/29 04:02:28;;;;;;;;;;;;;;;-0.04;86.19;98822.81;4990310;28;19921;-73
2021/01/29 04:05:13;;;;;;;;;;;;;;;0.10;87.00;98819.31;4994134;28;20047;-73
2021/01/29 04:08:06;;;;;;;;;;;;;;;0.04;86.81;98816.53;5010739;28;19928;-74
2021/01/29 04:10:52;;;;;;;;;;;;;;;0.08;86.46;98815.16;5013436;28;20326;-73
2021/01/29 04:13:43;;;;;;;;;;;;;;;0.08;86.86;98791.88;4968854;28;19928;-73
2021/01/29 04:16:16;;;;;;;;;;;;;;;0.07;86.05;98778.66;4994675;28;19920;-73
2021/01/29 04:18:44;;;;;;;;;;;;;;;-0.01;87.01;98780.44;4994357;28;19932;-73
2021/01/29 04:21:20;;;;;;;;;;;;;;;-0.01;87.17;98780.44;4994657;28;19940;-73
2021/01/29 04:23:50;;;;;;;;;;;;;;;-0.05;86.99;98763.09;5003627;28;20005;-73
2021/01/29 04:26:17;;;;;;;;;;;;;;;0.04;86.95;98752.25;5010632;28;20661;-73
2021/01/29 04:28:44;;;;;;;;;;;;;;;-0.10;86.96;98740.56;4965608;28;20395;-75
2021/01/29 04:31:12;;;;;;;;;;;;;;;-0.11;87.80;98731.69;4993929;28;19929;-73
2021/01/29 04:33:40;;;;;;;;;;;;;;;-0.07;87.90;98726.81;4978180;28;20443;-73
2021/01/29 04:36:08;;;;;;;;;;;;;;;-0.11;88.55;98730.84;4994530;28;19947;-73
2021/01/29 04:38:35;;;;;;;;;;;;;;;-0.09;88.30;98729.66;5010752;28;19928;-73
2021/01/29 04:41:21;;;;;;;;;;;;;;;-0.09;88.00;98718.13;5010442;28;19970;-73
2021/01/29 04:43:53;;;;;;;;;;;;;;;-0.11;88.33;98715.63;4997531;28;19941;-73
2021/01/29 04:46:38;;;;;;;;;;;;;;;-0.12;88.48;98713.13;5031613;28;19927;-73
2021/01/29 04:49:14;;;;;;;;;;;;;;;-0.18;88.33;98716.53;4997820;28;20023;-73
2021/01/29 04:51:43;;;;;;;;;;;;;;;-0.22;88.86;98712.56;4997288;28;20374;-73
2021/01/29 04:54:16;;;;;;;;;;;;;;;-0.16;88.03;98707.31;5006171;28;19921;-73
2021/01/29 04:56:51;;;;;;;;;;;;;;;-0.11;88.02;98715.63;5028346;28;19925;-73
2021/01/29 04:59:17;;;;;;;;;;;;;;;-0.04;87.58;98703.16;4964085;28;20306;-73
2021/01/29 05:02:15;;;;;;;;;;;;;;;-0.02;87.72;98700.31;5023624;28;19921;-73
2021/01/29 05:05:05;;;;;;;;;;;;;;;0.10;87.24;98688.09;4978525;28;19921;-73
2021/01/29 05:07:58;;;;;;;;;;;;;;;0.05;87.46;98684.31;5002479;28;20016;-73
2021/01/29 05:10:57;;;;;;;;;;;;;;;0.08;86.63;98686.59;5010079;28;20012;-73
2021/01/29 05:13:56;;;;;;;;;;;;;;;-0.08;87.95;98677.78;5008388;28;19928;-73
2021/01/29 05:16:41;;;;;;;;;;;;;;;0.00;87.25;98669.63;5031176;28;19978;-73
2021/01/29 05:19:07;;;;;;;;;;;;;;;-0.05;86.84;98661.34;5013504;28;19966;-73
2021/01/29 05:21:52;;;;;;;;;;;;;;;0.03;86.94;98655.03;5030871;28;20020;-73
2021/01/29 05:24:39;;;;;;;;;;;;;;;-0.01;87.32;98645.75;5022898;28;19956;-73
2021/01/29 05:27:31;;;;;;;;;;;;;;;0.10;86.19;98649.75;5006617;28;19927;-73
2021/01/29 05:30:16;;;;;;;;;;;;;;;0.19;86.83;98640.59;5000100;28;19921;-73
2021/01/29 05:32:43;;;;;;;;;;;;;;;-0.01;86.98;98635.84;5013295;28;19921;-73
2021/01/29 05:35:13;;;;;;;;;;;;;;;-0.01;86.71;98635.03;5030689;28;19956;-73
2021/01/29 05:37:48;;;;;;;;;;;;;;;0.05;86.41;98628.06;4996466;28;19921;-73
2021/01/29 05:40:17;;;;;;;;;;;;;;;-0.01;87.12;98619.78;5013126;28;20439;-73
2021/01/29 05:42:43;;;;;;;;;;;;;;;0.16;86.81;98611.53;5030486;28;19964;-73
2021/01/29 05:45:19;;;;;;;;;;;;;;;0.08;86.90;98607.09;5013381;28;19925;-73
2021/01/29 05:47:52;;;;;;;;;;;;;;;0.09;86.51;98597.22;5030820;28;19921;-73
2021/01/29 05:50:23;;;;;;;;;;;;;;;0.00;86.67;98588.50;5030491;28;20383;-73
2021/01/29 05:52:59;;;;;;;;;;;;;;;0.04;86.41;98587.06;5012637;28;19921;-73
2021/01/29 05:55:31;;;;;;;;;;;;;;;-0.03;87.37;98594.22;4991401;28;19921;-73
2021/01/29 05:58:00;;;;;;;;;;;;;;;0.07;86.94;98589.38;4986499;28;19928;-73
2021/01/29 06:00:30;;;;;;;;;;;;;;;0.05;86.45;98578.03;4986310;28;20004;-73
2021/01/29 06:03:09;;;;;;;;;;;;;;;0.13;86.52;98579.75;4999343;28;19970;-73
2021/01/29 06:05:44;;;;;;;;;;;;;;;0.08;86.79;98574.13;4948893;28;20513;-73
2021/01/29 06:08:30;;;;;;;;;;;;;;;0.00;85.94;98577.78;5001633;28;19921;-73
2021/01/29 06:11:12;;;;;;;;;;;;;;;-0.02;nan;98564.59;5022853;28;20315;-73
2021/01/29 06:13:47;;;;;;;;;;;;;;;0.06;86.54;98560.09;5013004;28;19921;-73
2021/01/29 06:16:34;;;;;;;;;;;;;;;0.09;86.82;98565.09;5002887;28;19928;-73
2021/01/29 06:19:15;;;;;;;;;;;;;;;0.09;86.05;98555.19;4996031;28;19921;-73
2021/01/29 06:21:50;;;;;;;;;;;;;;;0.07;86.84;98546.53;5012716;28;20039;-73
2021/01/29 06:24:38;;;;;;;;;;;;;;;0.12;86.63;98549.47;5001347;28;20341;-73
2021/01/29 06:27:07;;;;;;;;;;;;;;;0.19;86.41;98531.63;5006209;28;19922;-73
2021/01/29 06:29:52;;;;;;;;;;;;;;;0.13;86.65;98534.22;4977751;28;19933;-73
2021/01/29 06:32:27;;;;;;;;;;;;;;;0.09;85.68;98532.94;5012265;28;19921;-73
2021/01/29 06:34:56;;;;;;;;;;;;;;;0.08;86.83;98526.75;5029801;28;19928;-73
2021/01/29 06:37:32;;;;;;;;;;;;;;;0.03;86.53;98529.19;5012055;28;19927;-73
2021/01/29 06:40:03;;;;;;;;;;;;;;;0.00;86.98;98525.03;5008908;28;19967;-73
2021/01/29 06:42:35;;;;;;;;;;;;;;;0.03;87.11;98523.81;4979737;28;20371;-73
2021/01/29 06:45:17;;;;;;;;;;;;;;;0.05;87.20;98510.25;5011785;28;19921;-73
2021/01/29 06:48:02;;;;;;;;;;;;;;;0.02;87.18;98511.47;4995761;28;19960;-73
2021/01/29 06:50:50;;;;;;;;;;;;;;;0.03;86.93;98502.41;5029379;28;19979;-73
2021/01/29 06:53:35;;;;;;;;;;;;;;;0.12;86.54;98511.16;4976761;28;19925;-73
2021/01/29 06:56:10;;;;;;;;;;;;;;;0.08;86.53;98493.81;5006065;28;19966;-73
2021/01/29 06:58:55;;;;;;;;;;;;;;;0.10;86.43;98491.75;5027431;28;19940;-73
2021/01/29 07:01:40;;;;;;;;;;;;;;;0.20;86.15;98490.44;4992403;28;20172;-73
2021/01/29 07:04:12;;;;;;;;;;;;;;;0.21;86.26;98472.50;4992659;28;19951;-73
2021/01/29 07:06:57;;;;;;;;;;;;;;;0.18;86.19;98467.53;4995514;28;19983;-73
2021/01/29 07:09:42;;;;;;;;;;;;;;;0.18;86.06;98456.81;4995687;28;20019;-73
2021/01/29 07:12:08;;;;;;;;;;;;;;;0.25;86.24;98444.31;5029345;28;19921;-73
2021/01/29 07:14:47;;;;;;;;;;;;;;;0.25;86.51;98438.97;5011721;28;20309;-73
2021/01/29 07:17:19;;;;;;;;;;;;;;;0.24;87.02;98438.13;5029341;28;20591;-73
2021/01/29 07:19:46;;;;;;;;;;;;;;;0.28;86.44;98441.25;5011883;28;19964;-73
2021/01/29 07:22:16;;;;;;;;;;;;;;;0.21;87.11;98435.00;5012052;28;19925;-73
2021/01/29 07:24:45;;;;;;;;;;;;;;;0.19;87.18;98427.16;5002488;28;19925;-73
2021/01/29 07:27:14;;;;;;;;;;;;;;;0.17;87.63;98423.84;4988434;28;19925;-72
2021/01/29 07:30:04;;;;;;;;;;;;;;;0.20;87.90;98425.31;4991783;28;20379;-73
2021/01/29 07:32:40;;;;;;;;;;;;;;;0.25;88.49;98415.69;5013041;28;19921;-73
2021/01/29 07:35:25;;;;;;;;;;;;;;;0.29;88.13;98411.59;4996644;28;19921;-73
2021/01/29 07:38:10;;;;;;;;;;;;;;;0.30;88.22;98410.56;5011469;28;19927;-73
2021/01/29 07:40:41;;;;;;;;;;;;;;;0.26;88.16;98409.31;5028729;28;20386;-73
2021/01/29 07:43:15;;;;;;;;;;;;;;;0.21;88.42;98408.22;4995845;28;19936;-73
2021/01/29 07:46:06;;;;;;;;;;;;;;;0.11;88.49;98392.50;4995034;28;19936;-73
2021/01/29 07:48:51;;;;;;;;;;;;;;;0.14;89.31;98383.25;4978712;28;20434;-73
2021/01/29 07:51:35;;;;;;;;;;;;;;;0.12;89.17;98390.63;5011312;28;19943;-73
2021/01/29 07:54:36;;;;;;;;;;;;;;;0.09;89.74;98367.75;4988857;28;19925;-73
2021/01/29 07:57:09;;;;;;;;;;;;;;;0.00;90.62;98371.63;5009028;28;19968;-73
2021/01/29 07:59:54;;;;;;;;;;;;;;;-0.02;90.47;98371.81;5010788;28;19928;-73
2021/01/29 08:02:29;;;;;;;;;;;;;;;-0.02;91.26;98363.78;5022179;28;19980;-73
2021/01/29 08:05:19;;;;;;;;;;;;;;;-0.03;91.47;98362.13;5010379;28;20382;-73
2021/01/29 08:07:52;;;;;;;;;;;;;;;-0.10;92.28;98358.56;4996729;28;19947;-73
2021/01/29 08:10:30;;;;;;;;;;;;;;;-0.03;91.86;98361.31;4994637;28;19967;-73
2021/01/29 08:12:59;;;;;;;;;;;;;;;-0.05;91.94;98345.44;5010577;28;19924;-73
2021/01/29 08:15:29;;;;;;;;;;;;;;;-0.07;91.91;98346.66;4994444;28;19956;-73
2021/01/29 08:18:11;;;;;;;;;;;;;;;-0.05;92.11;98339.25;4980739;28;19960;-73
2021/01/29 08:20:46;;;;;;;;;;;;;;;-0.08;92.09;98340.47;5010586;28;19928;-72
2021/01/29 08:23:20;;;;;;;;;;;;;;;-0.12;91.43;98333.00;5008099;28;19928;-73
2021/01/29 08:25:54;;;;;;;;;;;;;;;-0.13;91.51;98329.50;5010870;28;19921;-73
2021/01/29 08:28:34;;;;;;;;;;;;;;;-0.12;92.00;98323.13;4999572;28;19978;-73
2021/01/29 08:31:24;;;;;;;;;;;;;;;-0.10;91.51;98322.94;5009521;28;20391;-72
2021/01/29 08:34:20;;;;;;;;;;;;;;;-0.15;91.84;98326.19;5006839;28;19925;-73
2021/01/29 08:37:05;;;;;;;;;;;;;;;-0.20;90.91;98314.41;5010208;28;19932;-73
2021/01/29 08:39:44;;;;;;;;;;;;;;;-0.19;91.63;98308.88;5010301;28;20008;-73
2021/01/29 08:42:18;;;;;;;;;;;;;;;-0.15;91.62;98309.31;4962840;28;19925;-72
2021/01/29 08:44:44;;;;;;;;;;;;;;;-0.12;91.49;98306.25;4974954;28;19928;-72
2021/01/29 08:47:18;;;;;;;;;;;;;;;-0.26;90.21;98316.00;5009692;28;19928;-72
2021/01/29 08:49:55;;;;;;;;;;;;;;;-0.21;90.94;98304.72;4994146;28;19928;-73
2021/01/29 08:52:24;;;;;;;;;;;;;;;-0.07;91.38;98291.25;4977309;28;19956;-73
2021/01/29 08:54:50;;;;;;;;;;;;;;;-0.07;91.08;98285.91;5002346;28;19921;-73
2021/01/29 08:57:16;;;;;;;;;;;;;;;-0.10;90.27;98283.63;5025246;22;20276;-67
2021/01/29 08:59:42;;;;;;;;;;;;;;;0.00;90.64;98278.72;4970129;28;20017;-67
2021/01/29 09:02:21;;;;;;;;;;;;;;;-0.11;90.31;98284.63;4982244;28;19921;-66
2021/01/29 09:04:48;;;;;;;;;;;;;;;-0.14;90.56;98271.63;5001880;28;19921;-67
2021/01/29 09:07:28;;;;;;;;;;;;;;;-0.15;90.59;98278.00;5009887;28;19927;-67
2021/01/29 09:10:12;;;;;;;;;;;;;;;-0.10;90.31;98272.91;5009912;28;19921;-68
2021/01/29 09:12:39;;;;;;;;;;;;;;;-0.22;91.00;98269.09;5026749;28;20012;-67
2021/01/29 09:15:14;;;;;;;;;;;;;;;-0.15;91.69;98267.31;5009014;28;20383;-67
2021/01/29 09:17:47;;;;;;;;;;;;;;;-0.06;91.19;98265.31;4994247;28;20005;-67
2021/01/29 09:20:13;;;;;;;;;;;;;;;-0.06;91.44;98255.44;5001526;28;19930;-68
2021/01/29 09:22:44;;;;;;;;;;;;;;;-0.13;91.92;98256.41;5017921;28;19921;-68
2021/01/29 09:25:24;;;;;;;;;;;;;;;-0.10;91.39;98246.13;5000087;28;20305;-68
2021/01/29 09:27:51;;;;;;;;;;;;;;;-0.09;91.48;98239.75;4999117;28;19968;-68
2021/01/29 09:30:29;;;;;;;;;;;;;;;-0.07;92.05;98237.72;5013505;28;19956;-67
2021/01/29 09:32:57;;;;;;;;;;;;;;;-0.01;91.77;98222.72;4997389;28;19921;-68
2021/01/29 09:35:41;;;;;;;;;;;;;;;-0.05;91.51;98222.28;5013325;28;19921;-67
2021/01/29 09:38:10;;;;;;;;;;;;;;;0.00;91.40;98211.78;4997076;28;19928;-67
2021/01/29 09:40:38;;;;;;;;;;;;;;;-0.01;91.77;98217.38;4980739;28;19968;-67
2021/01/29 09:43:13;;;;;;;;;;;;;;;-0.02;91.24;98207.69;5013072;28;19967;-67
2021/01/29 09:45:40;;;;;;;;;;;;;;;-0.07;91.34;98227.00;5013888;28;20340;-66
2021/01/29 09:48:08;;;;;;;;;;;;;;;-0.08;91.76;98217.31;4997031;28;19964;-66
2021/01/29 09:50:35;;;;;;;;;;;;;;;-0.12;91.36;98209.88;5012837;28;20306;-67
2021/01/29 09:53:01;;;;;;;;;;;;;;;-0.09;91.84;98201.47;4997044;28;20007;-66
2021/01/29 09:55:33;;;;;;;;;;;;;;;-0.06;91.63;98190.34;5033741;28;20410;-66
2021/01/29 09:58:07;;;;;;;;;;;;;;;0.03;92.24;98194.50;5036490;28;19924;-66
2021/01/29 10:00:34;;;;;;;;;;;;;;;-0.08;91.55;98195.91;5013477;28;19932;-66
2021/01/29 10:03:07;;;;;;;;;;;;;;;-0.05;92.09;98179.44;5006219;28;19921;-67
2021/01/29 10:05:37;;;;;;;;;;;;;;;-0.01;92.39;98179.88;5030598;28;19932;-67
2021/01/29 10:08:11;;;;;;;;;;;;;;;-0.05;92.46;98166.06;4996505;28;19956;-67
2021/01/29 10:10:42;;;;;;;;;;;;;;;0.00;93.12;98168.94;4996639;28;19927;-68
2021/01/29 10:13:17;;;;;;;;;;;;;;;-0.06;93.05;98169.78;5012836;28;19974;-68
2021/01/29 10:15:44;;;;;;;;;;;;;;;0.05;92.90;98170.22;4996944;28;19921;-68
2021/01/29 10:18:12;;;;;;;;;;;;;;;-0.04;92.97;98162.38;4982028;28;20339;-67
2021/01/29 10:20:39;;;;;;;;;;;;;;;0.02;92.84;98162.56;5013864;28;19921;-68
2021/01/29 10:23:10;;;;;;;;;;;;;;;-0.02;93.83;98152.28;4996787;28;19928;-67
2021/01/29 10:25:55;;;;;;;;;;;;;;;-0.15;94.61;98154.91;5027569;28;19956;-68
2021/01/29 10:28:28;;;;;;;;;;;;;;;-0.28;97.79;98144.09;5000372;28;19921;-68
2021/01/29 10:30:58;;;;;;;;;;;;;;;-0.18;98.18;98147.25;4991492;28;19928;-68
2021/01/29 10:33:27;;;;;;;;;;;;;;;-0.33;98.47;98149.22;5012375;28;19942;-68
2021/01/29 10:36:07;;;;;;;;;;;;;;;-0.07;99.37;98141.34;4996157;28;19921;-69
2021/01/29 10:38:41;;;;;;;;;;;;;;;-0.18;99.86;98149.09;4979753;28;20011;-70
2021/01/29 10:41:24;;;;;;;;;;;;;;;0.77;100.00;98135.56;4996637;28;19960;-71
2021/01/29 10:43:55;;;;;;;;;;;;;;;0.86;100.00;98139.72;4999013;28;20008;-70
2021/01/29 10:46:23;;;;;;;;;;;;;;;4.36;100.00;98126.78;4996790;28;19932;-72
2021/01/29 10:48:56;;;;;;;;;;;;;;;1.85;100.00;98134.22;5040332;28;20409;-71
2021/01/29 10:51:26;;;;;;;;;;;;;;;-144.77;100.00;64042.22;4997993;28;19943;-71
2021/01/29 10:53:59;;;;;;;;;;;;;;;-144.77;100.00;64042.22;4980491;28;19975;-71
2021/01/29 10:56:32;;;;;;;;;;;;;;;-144.77;100.00;64042.22;4976448;28;19971;-71
2021/01/29 10:59:03;;;;;;;;;;;;;;;-144.77;100.00;64042.22;4992332;28;19928;-71
2021/01/29 11:01:30;;;;;;;;;;;;;;;-144.77;100.00;64042.22;5008231;28;19949;-71
2021/01/29 11:04:05;;;;;;;;;;;;;;;22.79;72.49;98055.69;5026744;28;19921;-71
2021/01/29 11:06:51;;;;;;;;;;;;;;;14.49;76.18;98087.84;5012194;28;20405;-72
2021/01/29 11:09:19;;;;;;;;;;;;;;;20.80;63.54;98056.91;5012091;28;19921;-71
2021/01/29 11:11:59;;;;;;;;;;;;;;;4.38;79.69;98109.31;5012571;28;20085;-71
2021/01/29 11:14:28;;;;;;;;;;;;;;;3.72;86.13;98117.38;4995927;28;19921;-72
2021/01/29 11:17:05;;;;;;;;;;;;;;;3.30;91.03;98122.56;5061794;28;19983;-71
2021/01/29 11:19:37;;;;;;;;;;;;;;;3.39;93.33;98106.97;4993949;28;19922;-71
2021/01/29 11:22:10;;;;;;;;;;;;;;;6.84;91.83;98093.75;4976304;28;20002;-72
2021/01/29 11:24:41;;;;;;;;;;;;;;;9.73;94.81;98083.59;4976520;28;19953;-71
2021/01/29 11:27:19;;;;;;;;;;;;;;;8.60;82.76;98082.97;4982982;28;19922;-71
2021/01/29 11:30:04;;;;;;;;;;;;;;;8.18;84.85;98090.88;5008558;28;19921;-71
2021/01/29 11:32:34;;;;;;;;;;;;;;;8.49;87.17;98092.06;5011640;28;19974;-72
2021/01/29 11:35:24;;;;;;;;;;;;;;;7.50;93.77;98094.84;4983228;28;19921;-72
2021/01/29 11:37:57;;;;;;;;;;;;;;;4.57;89.43;98096.59;5008457;28;20016;-72
2021/01/29 11:40:27;;;;;;;;;;;;;;;5.71;90.59;98086.38;5028383;28;20437;-72
2021/01/29 11:42:53;;;;;;;;;;;;;;;8.03;85.19;98075.22;5010696;28;20015;-72
2021/01/29 11:45:20;;;;;;;;;;;;;;;7.27;87.02;98076.88;5006287;28;19929;-71
2021/01/29 11:48:08;;;;;;;;;;;;;;;7.37;88.00;98073.47;5008630;28;20008;-72
2021/01/29 11:50:36;;;;;;;;;;;;;;;8.06;93.91;98069.28;4990466;28;19925;-71
2021/01/29 11:53:23;;;;;;;;;;;;;;;4.82;96.28;98071.34;4986154;28;20008;-71
2021/01/29 11:55:53;;;;;;;;;;;;;;;5.52;90.11;98087.56;5002175;28;19957;-71
2021/01/29 11:58:30;;;;;;;;;;;;;;;5.33;93.32;98086.84;4975925;28;19921;-71
2021/01/29 12:01:13;;;;;;;;;;;;;;;7.29;95.42;98072.00;5010895;28;19981;-71
2021/01/29 12:03:42;;;;;;;;;;;;;;;6.03;96.86;98078.69;4959678;28;19947;-71
2021/01/29 12:06:08;;;;;;;;;;;;;;;11.63;90.30;98048.31;4978382;28;20020;-70
2021/01/29 12:08:38;;;;;;;;;;;;;;;11.21;91.98;98052.19;4986339;28;19961;-71
2021/01/29 12:11:08;;;;;;;;;;;;;;;13.66;88.71;98041.66;5008115;28;19970;-71
2021/01/29 12:13:39;;;;;;;;;;;;;;;2.10;93.21;98067.16;4994756;28;19929;-70
2021/01/29 12:16:10;;;;;;;;;;;;;;;1.43;94.00;98071.16;4978262;28;20320;-70
2021/01/29 12:18:37;;;;;;;;;;;;;;;1.52;94.29;98066.38;4977946;28;19953;-71
2021/01/29 12:21:07;;;;;;;;;;;;;;;1.42;94.11;98057.94;4994729;28;19921;-70
2021/01/29 12:23:46;;;;;;;;;;;;;;;1.44;93.84;98061.22;4970212;28;20020;-71
2021/01/29 12:26:26;;;;;;;;;;;;;;;1.17;94.73;98055.13;4984890;28;19922;-70
2021/01/29 12:28:58;;;;;;;;;;;;;;;1.13;95.47;98052.03;4994275;28;20463;-70
2021/01/29 12:31:25;;;;;;;;;;;;;;;1.09;95.56;98053.47;4975185;28;19925;-71
2021/01/29 12:33:53;;;;;;;;;;;;;;;0.95;94.75;98054.53;4975114;28;19925;-71
2021/01/29 12:36:20;;;;;;;;;;;;;;;1.05;95.46;98056.78;4974841;28;19925;-70
2021/01/29 12:38:54;;;;;;;;;;;;;;;1.01;95.13;98051.03;4991078;28;19967;-70
2021/01/29 12:41:36;;;;;;;;;;;;;;;0.94;94.96;98045.66;4991085;28;20379;-70
2021/01/29 12:44:22;;;;;;;;;;;;;;;1.13;94.99;98049.34;4977599;28;19922;-71
2021/01/29 12:47:07;;;;;;;;;;;;;;;1.00;94.60;98044.03;5004492;28;19928;-70
2021/01/29 12:49:39;;;;;;;;;;;;;;;0.86;94.59;98042.38;5010122;28;19925;-71
2021/01/29 12:52:14;;;;;;;;;;;;;;;0.81;95.20;98045.66;5010188;28;19929;-69
2021/01/29 12:54:46;;;;;;;;;;;;;;;0.87;95.23;98038.66;4991732;28;19963;-70
2021/01/29 12:57:17;;;;;;;;;;;;;;;0.90;98.22;98038.25;4984963;28;20374;-70
2021/01/29 13:00:02;;;;;;;;;;;;;;;1.01;98.08;98034.94;5016670;28;19921;-71
2021/01/29 13:02:42;;;;;;;;;;;;;;;1.17;98.96;98039.84;4991456;28;19922;-71
2021/01/29 13:05:18;;;;;;;;;;;;;;;1.10;98.50;98039.03;5006361;28;19956;-70
2021/01/29 13:07:51;;;;;;;;;;;;;;;1.26;97.65;98038.59;4981225;28;19921;-71
2021/01/29 13:10:17;;;;;;;;;;;;;;;1.51;96.96;98048.63;5013852;28;19974;-71
2021/01/29 13:12:58;;;;;;;;;;;;;;;1.11;95.62;98034.50;5013619;28;19974;-71
2021/01/29 13:15:45;;;;;;;;;;;;;;;1.31;96.11;98032.59;5009393;28;19929;-71
2021/01/29 13:18:17;;;;;;;;;;;;;;;1.45;95.93;98038.72;5000126;28;20340;-71
2021/01/29 13:20:48;;;;;;;;;;;;;;;1.44;95.88;98040.59;5022902;28;20019;-70
2021/01/29 13:23:14;;;;;;;;;;;;;;;1.43;95.87;98040.81;4994410;28;19974;-71
2021/01/29 13:25:52;;;;;;;;;;;;;;;1.55;96.40;98044.50;5010904;28;19921;-71
2021/01/29 13:28:19;;;;;;;;;;;;;;;1.53;95.53;98047.38;4989924;28;19982;-71